sensor_id;sensor_type;location;lat;lon;timestamp;temperature;humidity
12025;DHT22;6073;53.230;10.444;2022-08-19T00:02:14;18.90;99.90
12025;DHT22;6073;53.230;10.444;2022-08-19T00:04:40;18.80;99.90
12025;DHT22;6073;53.230;10.444;2022-08-19T00:07:06;18.80;99.90
12025;DHT22;6073;53.230;10.444;2022-08-19T00:09:32;18.80;99.90
12025;DHT22;6073;53.230;10.444;2022-08-19T00:11:59;18.80;99.90
12025;DHT22;6073;53.230;10.444;2022-08-19T00:14:26;18.80;99.90
12025;DHT22;6073;53.230;10.444;2022-08-19T00:16:53;18.80;99.90
12025;DHT22;6073;53.230;10.444;2022-08-19T00:19:19;18.70;99.90
12025;DHT22;6073;53.230;10.444;2022-08-19T00:21:45;18.70;99.90
12025;DHT22;6073;53.230;10.444;2022-08-19T00:24:15;18.60;99.90
12025;DHT22;6073;53.230;10.444;2022-08-19T00:26:42;18.60;99.90
12025;DHT22;6073;53.230;10.444;2022-08-19T00:29:13;18.50;99.90
12025;DHT22;6073;53.230;10.444;2022-08-19T00:31:40;18.50;99.90
12025;DHT22;6073;53.230;10.444;2022-08-19T00:34:07;18.50;99.90
12025;DHT22;6073;53.230;10.444;2022-08-19T00:36:32;18.50;99.90
12025;DHT22;6073;53.230;10.444;2022-08-19T00:38:59;18.50;99.90
12025;DHT22;6073;53.230;10.444;2022-08-19T00:41:25;18.50;99.90
12025;DHT22;6073;53.230;10.444;2022-08-19T00:46:24;18.50;99.90
12025;DHT22;6073;53.230;10.444;2022-08-19T00:48:50;18.50;99.90
12025;DHT22;6073;53.230;10.444;2022-08-19T00:51:15;18.50;99.90
12025;DHT22;6073;53.230;10.444;2022-08-19T00:53:41;18.50;99.90
12025;DHT22;6073;53.230;10.444;2022-08-19T00:56:10;18.50;99.90
12025;DHT22;6073;53.230;10.444;2022-08-19T00:58:36;18.50;99.90
12025;DHT22;6073;53.230;10.444;2022-08-19T01:01:04;18.50;99.90
12025;DHT22;6073;53.230;10.444;2022-08-19T01:03:30;18.50;99.90
12025;DHT22;6073;53.230;10.444;2022-08-19T01:05:58;18.50;99.90
12025;DHT22;6073;53.230;10.444;2022-08-19T01:08:25;18.50;99.90
12025;DHT22;6073;53.230;10.444;2022-08-19T01:10:56;18.50;99.90
12025;DHT22;6073;53.230;10.444;2022-08-19T01:13:30;18.50;99.90
12025;DHT22;6073;53.230;10.444;2022-08-19T01:16:08;18.50;99.90
12025;DHT22;6073;53.230;10.444;2022-08-19T01:18:40;18.40;99.90
12025;DHT22;6073;53.230;10.444;2022-08-19T01:21:16;18.40;99.90
12025;DHT22;6073;53.230;10.444;2022-08-19T01:23:44;18.40;99.90
12025;DHT22;6073;53.230;10.444;2022-08-19T01:26:13;18.40;99.90
12025;DHT22;6073;53.230;10.444;2022-08-19T01:28:40;18.40;99.90
12025;DHT22;6073;53.230;10.444;2022-08-19T01:31:10;18.40;99.90
12025;DHT22;6073;53.230;10.444;2022-08-19T01:33:40;18.40;99.90
12025;DHT22;6073;53.230;10.444;2022-08-19T01:36:12;18.40;99.90
12025;DHT22;6073;53.230;10.444;2022-08-19T01:38:41;18.40;99.90
12025;DHT22;6073;53.230;10.444;2022-08-19T01:41:10;18.30;99.90
12025;DHT22;6073;53.230;10.444;2022-08-19T01:43:36;18.30;99.90
12025;DHT22;6073;53.230;10.444;2022-08-19T01:46:02;18.30;99.90
12025;DHT22;6073;53.230;10.444;2022-08-19T01:48:40;18.30;99.90
12025;DHT22;6073;53.230;10.444;2022-08-19T01:51:10;18.40;99.90
12025;DHT22;6073;53.230;10.444;2022-08-19T01:53:39;18.30;99.90
12025;DHT22;6073;53.230;10.444;2022-08-19T01:56:06;18.30;99.90
12025;DHT22;6073;53.230;10.444;2022-08-19T01:58:36;18.30;99.90
12025;DHT22;6073;53.230;10.444;2022-08-19T02:01:07;18.20;99.90
12025;DHT22;6073;53.230;10.444;2022-08-19T02:03:33;18.20;99.90
12025;DHT22;6073;53.230;10.444;2022-08-19T02:06:03;18.20;99.90
12025;DHT22;6073;53.230;10.444;2022-08-19T02:08:33;18.20;99.90
12025;DHT22;6073;53.230;10.444;2022-08-19T02:11:00;18.10;99.90
12025;DHT22;6073;53.230;10.444;2022-08-19T02:13:26;18.10;99.90
12025;DHT22;6073;53.230;10.444;2022-08-19T02:15:52;18.10;99.90
12025;DHT22;6073;53.230;10.444;2022-08-19T02:18:18;18.10;99.90
12025;DHT22;6073;53.230;10.444;2022-08-19T02:20:44;18.00;99.90
12025;DHT22;6073;53.230;10.444;2022-08-19T02:23:11;18.10;99.90
12025;DHT22;6073;53.230;10.444;2022-08-19T02:25:41;18.00;99.90
12025;DHT22;6073;53.230;10.444;2022-08-19T02:28:10;18.00;99.90
12025;DHT22;6073;53.230;10.444;2022-08-19T02:30:41;18.00;99.90
12025;DHT22;6073;53.230;10.444;2022-08-19T02:33:07;18.00;99.90
12025;DHT22;6073;53.230;10.444;2022-08-19T02:35:32;18.00;99.90
12025;DHT22;6073;53.230;10.444;2022-08-19T02:38:00;17.90;99.90
12025;DHT22;6073;53.230;10.444;2022-08-19T02:40:49;18.00;99.90
12025;DHT22;6073;53.230;10.444;2022-08-19T02:43:17;17.90;99.90
12025;DHT22;6073;53.230;10.444;2022-08-19T02:45:48;18.00;99.90
12025;DHT22;6073;53.230;10.444;2022-08-19T02:48:22;17.90;99.90
12025;DHT22;6073;53.230;10.444;2022-08-19T02:50:49;17.90;99.90
12025;DHT22;6073;53.230;10.444;2022-08-19T02:53:25;17.90;99.90
12025;DHT22;6073;53.230;10.444;2022-08-19T02:55:54;17.90;99.90
12025;DHT22;6073;53.230;10.444;2022-08-19T02:58:20;17.90;99.90
12025;DHT22;6073;53.230;10.444;2022-08-19T03:00:52;17.90;99.90
12025;DHT22;6073;53.230;10.444;2022-08-19T03:03:19;17.90;99.90
12025;DHT22;6073;53.230;10.444;2022-08-19T03:05:48;17.90;99.90
12025;DHT22;6073;53.230;10.444;2022-08-19T03:08:13;17.90;99.90
12025;DHT22;6073;53.230;10.444;2022-08-19T03:10:44;17.90;99.90
12025;DHT22;6073;53.230;10.444;2022-08-19T03:13:15;17.90;99.90
12025;DHT22;6073;53.230;10.444;2022-08-19T03:15:48;17.90;99.90
12025;DHT22;6073;53.230;10.444;2022-08-19T03:18:15;17.90;99.90
12025;DHT22;6073;53.230;10.444;2022-08-19T03:20:45;17.90;99.90
12025;DHT22;6073;53.230;10.444;2022-08-19T03:23:17;18.00;99.90
12025;DHT22;6073;53.230;10.444;2022-08-19T03:25:46;18.00;99.90
12025;DHT22;6073;53.230;10.444;2022-08-19T03:28:14;18.10;99.90
12025;DHT22;6073;53.230;10.444;2022-08-19T03:30:41;18.10;99.90
12025;DHT22;6073;53.230;10.444;2022-08-19T03:33:08;18.10;99.90
12025;DHT22;6073;53.230;10.444;2022-08-19T03:35:35;18.10;99.90
12025;DHT22;6073;53.230;10.444;2022-08-19T03:38:24;18.10;99.90
12025;DHT22;6073;53.230;10.444;2022-08-19T03:40:55;18.10;99.90
12025;DHT22;6073;53.230;10.444;2022-08-19T03:43:23;18.20;99.90
12025;DHT22;6073;53.230;10.444;2022-08-19T03:46:05;18.20;99.90
12025;DHT22;6073;53.230;10.444;2022-08-19T03:48:35;18.20;99.90
12025;DHT22;6073;53.230;10.444;2022-08-19T03:51:02;18.20;99.90
12025;DHT22;6073;53.230;10.444;2022-08-19T03:53:29;18.20;99.90
12025;DHT22;6073;53.230;10.444;2022-08-19T03:55:57;18.20;99.90
12025;DHT22;6073;53.230;10.444;2022-08-19T03:58:25;18.20;99.90
12025;DHT22;6073;53.230;10.444;2022-08-19T04:00:57;18.20;99.90
12025;DHT22;6073;53.230;10.444;2022-08-19T04:03:29;18.20;99.90
12025;DHT22;6073;53.230;10.444;2022-08-19T04:05:57;18.20;99.90
12025;DHT22;6073;53.230;10.444;2022-08-19T04:08:23;18.20;99.90
12025;DHT22;6073;53.230;10.444;2022-08-19T04:10:55;18.20;99.90
12025;DHT22;6073;53.230;10.444;2022-08-19T04:13:20;18.20;99.90
12025;DHT22;6073;53.230;10.444;2022-08-19T04:15:49;18.20;99.90
12025;DHT22;6073;53.230;10.444;2022-08-19T04:18:17;18.20;99.90
12025;DHT22;6073;53.230;10.444;2022-08-19T04:20:45;18.20;99.90
12025;DHT22;6073;53.230;10.444;2022-08-19T04:23:12;18.20;99.90
12025;DHT22;6073;53.230;10.444;2022-08-19T04:25:41;18.20;99.90
12025;DHT22;6073;53.230;10.444;2022-08-19T04:28:08;18.20;99.90
12025;DHT22;6073;53.230;10.444;2022-08-19T04:30:53;18.30;99.90
12025;DHT22;6073;53.230;10.444;2022-08-19T04:33:24;18.30;99.90
12025;DHT22;6073;53.230;10.444;2022-08-19T04:35:51;18.30;99.90
12025;DHT22;6073;53.230;10.444;2022-08-19T04:38:22;18.30;99.90
12025;DHT22;6073;53.230;10.444;2022-08-19T04:41:13;18.30;99.90
12025;DHT22;6073;53.230;10.444;2022-08-19T04:43:57;18.30;99.90
12025;DHT22;6073;53.230;10.444;2022-08-19T04:46:23;18.20;99.90
12025;DHT22;6073;53.230;10.444;2022-08-19T04:48:49;18.20;99.90
12025;DHT22;6073;53.230;10.444;2022-08-19T04:51:14;18.20;99.90
12025;DHT22;6073;53.230;10.444;2022-08-19T04:53:41;18.20;99.90
12025;DHT22;6073;53.230;10.444;2022-08-19T04:56:15;18.20;99.90
12025;DHT22;6073;53.230;10.444;2022-08-19T04:58:43;18.20;99.90
12025;DHT22;6073;53.230;10.444;2022-08-19T05:01:22;18.20;99.90
12025;DHT22;6073;53.230;10.444;2022-08-19T05:03:52;18.20;99.90
12025;DHT22;6073;53.230;10.444;2022-08-19T05:06:20;18.20;99.90
12025;DHT22;6073;53.230;10.444;2022-08-19T05:08:52;18.30;99.90
12025;DHT22;6073;53.230;10.444;2022-08-19T05:11:25;18.30;99.90
12025;DHT22;6073;53.230;10.444;2022-08-19T05:13:54;18.30;99.90
12025;DHT22;6073;53.230;10.444;2022-08-19T05:16:21;18.40;99.90
12025;DHT22;6073;53.230;10.444;2022-08-19T05:18:47;18.40;99.90
12025;DHT22;6073;53.230;10.444;2022-08-19T05:21:32;18.40;99.90
12025;DHT22;6073;53.230;10.444;2022-08-19T05:24:17;18.40;99.90
12025;DHT22;6073;53.230;10.444;2022-08-19T05:26:45;18.40;99.90
12025;DHT22;6073;53.230;10.444;2022-08-19T05:29:13;18.40;99.90
12025;DHT22;6073;53.230;10.444;2022-08-19T05:31:39;18.40;99.90
12025;DHT22;6073;53.230;10.444;2022-08-19T05:34:05;18.40;99.90
12025;DHT22;6073;53.230;10.444;2022-08-19T05:36:44;18.50;99.90
12025;DHT22;6073;53.230;10.444;2022-08-19T05:39:14;18.50;99.90
12025;DHT22;6073;53.230;10.444;2022-08-19T05:41:55;18.50;99.90
12025;DHT22;6073;53.230;10.444;2022-08-19T05:44:24;18.50;99.90
12025;DHT22;6073;53.230;10.444;2022-08-19T05:46:50;18.50;99.90
12025;DHT22;6073;53.230;10.444;2022-08-19T05:49:21;18.50;99.90
12025;DHT22;6073;53.230;10.444;2022-08-19T05:51:47;18.50;99.90
12025;DHT22;6073;53.230;10.444;2022-08-19T05:54:12;18.50;99.90
12025;DHT22;6073;53.230;10.444;2022-08-19T05:56:39;18.50;99.90
12025;DHT22;6073;53.230;10.444;2022-08-19T05:59:06;18.50;99.90
12025;DHT22;6073;53.230;10.444;2022-08-19T06:01:37;18.50;99.90
12025;DHT22;6073;53.230;10.444;2022-08-19T06:04:03;18.60;99.90
12025;DHT22;6073;53.230;10.444;2022-08-19T06:06:29;18.50;99.90
12025;DHT22;6073;53.230;10.444;2022-08-19T06:08:55;18.50;99.90
12025;DHT22;6073;53.230;10.444;2022-08-19T06:11:24;18.50;99.90
12025;DHT22;6073;53.230;10.444;2022-08-19T06:13:52;18.50;99.90
12025;DHT22;6073;53.230;10.444;2022-08-19T06:16:22;18.50;99.90
12025;DHT22;6073;53.230;10.444;2022-08-19T06:18:59;18.60;99.90
12025;DHT22;6073;53.230;10.444;2022-08-19T06:21:27;18.60;99.90
12025;DHT22;6073;53.230;10.444;2022-08-19T06:23:54;18.60;99.90
12025;DHT22;6073;53.230;10.444;2022-08-19T06:26:28;18.60;99.90
12025;DHT22;6073;53.230;10.444;2022-08-19T06:28:53;18.70;99.90
12025;DHT22;6073;53.230;10.444;2022-08-19T06:31:22;18.70;99.90
12025;DHT22;6073;53.230;10.444;2022-08-19T06:33:49;18.80;99.90
12025;DHT22;6073;53.230;10.444;2022-08-19T06:36:25;18.80;99.90
12025;DHT22;6073;53.230;10.444;2022-08-19T06:39:01;18.90;99.90
12025;DHT22;6073;53.230;10.444;2022-08-19T06:41:28;18.80;99.90
12025;DHT22;6073;53.230;10.444;2022-08-19T06:43:55;18.90;99.90
12025;DHT22;6073;53.230;10.444;2022-08-19T06:46:21;18.90;99.90
12025;DHT22;6073;53.230;10.444;2022-08-19T06:48:50;18.90;99.90
12025;DHT22;6073;53.230;10.444;2022-08-19T06:51:18;18.90;99.90
12025;DHT22;6073;53.230;10.444;2022-08-19T06:53:57;18.80;99.90
12025;DHT22;6073;53.230;10.444;2022-08-19T06:56:26;18.70;99.90
12025;DHT22;6073;53.230;10.444;2022-08-19T06:59:04;18.80;99.90
12025;DHT22;6073;53.230;10.444;2022-08-19T07:01:37;18.80;99.90
12025;DHT22;6073;53.230;10.444;2022-08-19T07:04:08;18.70;99.90
12025;DHT22;6073;53.230;10.444;2022-08-19T07:06:35;18.70;99.90
12025;DHT22;6073;53.230;10.444;2022-08-19T07:09:01;18.70;99.90
12025;DHT22;6073;53.230;10.444;2022-08-19T07:11:27;18.70;99.90
12025;DHT22;6073;53.230;10.444;2022-08-19T07:13:53;18.70;99.90
12025;DHT22;6073;53.230;10.444;2022-08-19T07:16:20;18.70;99.90
12025;DHT22;6073;53.230;10.444;2022-08-19T07:18:49;18.70;99.90
12025;DHT22;6073;53.230;10.444;2022-08-19T07:21:29;18.70;99.90
12025;DHT22;6073;53.230;10.444;2022-08-19T07:23:56;18.70;99.90
12025;DHT22;6073;53.230;10.444;2022-08-19T07:26:29;18.60;99.90
12025;DHT22;6073;53.230;10.444;2022-08-19T07:28:56;18.60;99.90
12025;DHT22;6073;53.230;10.444;2022-08-19T07:31:24;18.60;99.90
12025;DHT22;6073;53.230;10.444;2022-08-19T07:33:52;18.50;99.90
12025;DHT22;6073;53.230;10.444;2022-08-19T07:36:28;18.50;99.90
12025;DHT22;6073;53.230;10.444;2022-08-19T07:38:56;18.50;99.90
12025;DHT22;6073;53.230;10.444;2022-08-19T07:41:24;18.50;99.90
12025;DHT22;6073;53.230;10.444;2022-08-19T07:43:50;18.50;99.90
12025;DHT22;6073;53.230;10.444;2022-08-19T07:46:17;18.60;99.90
12025;DHT22;6073;53.230;10.444;2022-08-19T07:48:43;18.50;99.90
12025;DHT22;6073;53.230;10.444;2022-08-19T07:51:18;18.60;99.90
12025;DHT22;6073;53.230;10.444;2022-08-19T07:53:44;18.60;99.90
12025;DHT22;6073;53.230;10.444;2022-08-19T07:56:14;18.60;99.90
12025;DHT22;6073;53.230;10.444;2022-08-19T07:58:43;18.60;99.90
12025;DHT22;6073;53.230;10.444;2022-08-19T08:01:15;18.60;99.90
12025;DHT22;6073;53.230;10.444;2022-08-19T08:03:42;18.50;99.90
12025;DHT22;6073;53.230;10.444;2022-08-19T08:06:26;18.60;99.90
12025;DHT22;6073;53.230;10.444;2022-08-19T08:09:11;18.50;99.90
12025;DHT22;6073;53.230;10.444;2022-08-19T08:11:51;18.50;99.90
12025;DHT22;6073;53.230;10.444;2022-08-19T08:14:24;18.50;99.90
12025;DHT22;6073;53.230;10.444;2022-08-19T08:16:50;18.50;99.90
12025;DHT22;6073;53.230;10.444;2022-08-19T08:19:21;18.50;99.90
12025;DHT22;6073;53.230;10.444;2022-08-19T08:21:48;18.50;99.90
12025;DHT22;6073;53.230;10.444;2022-08-19T08:24:14;18.50;99.90
12025;DHT22;6073;53.230;10.444;2022-08-19T08:26:39;18.50;99.90
12025;DHT22;6073;53.230;10.444;2022-08-19T08:29:06;18.60;99.90
12025;DHT22;6073;53.230;10.444;2022-08-19T08:31:35;18.70;99.90
12025;DHT22;6073;53.230;10.444;2022-08-19T08:34:08;18.60;99.90
12025;DHT22;6073;53.230;10.444;2022-08-19T08:36:44;18.60;99.90
12025;DHT22;6073;53.230;10.444;2022-08-19T08:39:17;18.60;99.90
12025;DHT22;6073;53.230;10.444;2022-08-19T08:41:57;18.60;99.90
12025;DHT22;6073;53.230;10.444;2022-08-19T08:47:03;18.50;99.90
12025;DHT22;6073;53.230;10.444;2022-08-19T08:52:31;18.40;99.90
12025;DHT22;6073;53.230;10.444;2022-08-19T08:55:05;18.40;99.90
12025;DHT22;6073;53.230;10.444;2022-08-19T08:57:39;18.40;99.90
12025;DHT22;6073;53.230;10.444;2022-08-19T09:00:15;18.40;99.90
12025;DHT22;6073;53.230;10.444;2022-08-19T09:02:42;18.40;99.90
12025;DHT22;6073;53.230;10.444;2022-08-19T09:05:09;18.40;99.90
12025;DHT22;6073;53.230;10.444;2022-08-19T09:07:41;18.40;99.90
12025;DHT22;6073;53.230;10.444;2022-08-19T09:10:32;18.50;99.90
12025;DHT22;6073;53.230;10.444;2022-08-19T09:16:01;18.60;99.90
12025;DHT22;6073;53.230;10.444;2022-08-19T09:21:07;18.60;99.90
12025;DHT22;6073;53.230;10.444;2022-08-19T09:23:35;18.60;99.90
12025;DHT22;6073;53.230;10.444;2022-08-19T09:26:00;18.60;99.90
12025;DHT22;6073;53.230;10.444;2022-08-19T09:28:26;18.60;99.90
12025;DHT22;6073;53.230;10.444;2022-08-19T09:30:53;18.60;99.90
12025;DHT22;6073;53.230;10.444;2022-08-19T09:33:18;18.60;99.90
12025;DHT22;6073;53.230;10.444;2022-08-19T09:35:45;18.60;99.90
12025;DHT22;6073;53.230;10.444;2022-08-19T09:38:11;18.60;99.90
12025;DHT22;6073;53.230;10.444;2022-08-19T09:40:37;18.60;99.90
12025;DHT22;6073;53.230;10.444;2022-08-19T09:43:02;18.50;99.90
12025;DHT22;6073;53.230;10.444;2022-08-19T09:45:28;18.60;99.90
12025;DHT22;6073;53.230;10.444;2022-08-19T09:47:54;18.60;99.90
12025;DHT22;6073;53.230;10.444;2022-08-19T09:50:20;18.60;99.90
12025;DHT22;6073;53.230;10.444;2022-08-19T09:52:46;18.60;99.90
12025;DHT22;6073;53.230;10.444;2022-08-19T09:55:12;18.60;99.90
12025;DHT22;6073;53.230;10.444;2022-08-19T09:57:38;18.60;99.90
12025;DHT22;6073;53.230;10.444;2022-08-19T10:00:07;18.70;99.90
12025;DHT22;6073;53.230;10.444;2022-08-19T10:02:33;18.70;99.90
12025;DHT22;6073;53.230;10.444;2022-08-19T10:04:58;18.80;99.90
12025;DHT22;6073;53.230;10.444;2022-08-19T10:07:43;18.80;99.90
12025;DHT22;6073;53.230;10.444;2022-08-19T10:10:08;18.90;99.90
12025;DHT22;6073;53.230;10.444;2022-08-19T10:12:35;18.90;99.90
12025;DHT22;6073;53.230;10.444;2022-08-19T10:15:02;18.90;99.90
12025;DHT22;6073;53.230;10.444;2022-08-19T10:17:27;19.00;99.90
12025;DHT22;6073;53.230;10.444;2022-08-19T10:19:54;19.00;99.90
12025;DHT22;6073;53.230;10.444;2022-08-19T10:22:20;19.00;99.90
12025;DHT22;6073;53.230;10.444;2022-08-19T10:24:46;19.10;99.90
12025;DHT22;6073;53.230;10.444;2022-08-19T10:27:12;19.10;99.90
12025;DHT22;6073;53.230;10.444;2022-08-19T10:29:39;19.10;99.90
12025;DHT22;6073;53.230;10.444;2022-08-19T10:32:07;19.10;99.90
12025;DHT22;6073;53.230;10.444;2022-08-19T10:34:35;19.10;99.90
12025;DHT22;6073;53.230;10.444;2022-08-19T10:37:03;19.20;99.90
12025;DHT22;6073;53.230;10.444;2022-08-19T10:39:33;19.20;99.90
12025;DHT22;6073;53.230;10.444;2022-08-19T10:41:58;19.30;99.90
12025;DHT22;6073;53.230;10.444;2022-08-19T10:44:24;19.40;99.90
12025;DHT22;6073;53.230;10.444;2022-08-19T10:46:50;19.50;99.90
12025;DHT22;6073;53.230;10.444;2022-08-19T10:49:17;19.60;99.90
12025;DHT22;6073;53.230;10.444;2022-08-19T10:51:44;19.60;99.90
12025;DHT22;6073;53.230;10.444;2022-08-19T10:54:28;19.60;99.90
12025;DHT22;6073;53.230;10.444;2022-08-19T10:57:15;19.70;99.90
12025;DHT22;6073;53.230;10.444;2022-08-19T10:59:41;19.60;99.90
12025;DHT22;6073;53.230;10.444;2022-08-19T11:02:10;19.70;99.90
12025;DHT22;6073;53.230;10.444;2022-08-19T11:04:37;19.70;99.90
12025;DHT22;6073;53.230;10.444;2022-08-19T11:07:04;19.80;99.90
12025;DHT22;6073;53.230;10.444;2022-08-19T11:09:30;19.90;99.90
12025;DHT22;6073;53.230;10.444;2022-08-19T11:11:56;19.80;99.90
12025;DHT22;6073;53.230;10.444;2022-08-19T11:14:23;19.80;99.90
12025;DHT22;6073;53.230;10.444;2022-08-19T11:16:49;19.90;99.90
12025;DHT22;6073;53.230;10.444;2022-08-19T11:19:16;19.90;99.90
12025;DHT22;6073;53.230;10.444;2022-08-19T11:21:46;19.90;99.90
12025;DHT22;6073;53.230;10.444;2022-08-19T11:24:15;20.00;99.90
12025;DHT22;6073;53.230;10.444;2022-08-19T11:26:42;19.90;99.90
12025;DHT22;6073;53.230;10.444;2022-08-19T11:29:10;19.90;99.90
12025;DHT22;6073;53.230;10.444;2022-08-19T11:31:37;19.90;99.90
12025;DHT22;6073;53.230;10.444;2022-08-19T11:34:07;20.00;99.90
12025;DHT22;6073;53.230;10.444;2022-08-19T11:36:33;20.10;99.90
12025;DHT22;6073;53.230;10.444;2022-08-19T11:39:00;20.20;99.90
12025;DHT22;6073;53.230;10.444;2022-08-19T11:41:26;20.20;99.90
12025;DHT22;6073;53.230;10.444;2022-08-19T11:43:53;20.20;99.90
12025;DHT22;6073;53.230;10.444;2022-08-19T11:46:22;20.40;99.90
12025;DHT22;6073;53.230;10.444;2022-08-19T11:48:49;20.40;99.90
12025;DHT22;6073;53.230;10.444;2022-08-19T11:51:18;20.50;99.90
12025;DHT22;6073;53.230;10.444;2022-08-19T11:53:44;20.60;99.90
12025;DHT22;6073;53.230;10.444;2022-08-19T11:56:11;20.70;99.90
12025;DHT22;6073;53.230;10.444;2022-08-19T11:58:38;20.80;99.90
12025;DHT22;6073;53.230;10.444;2022-08-19T12:01:08;21.10;99.90
12025;DHT22;6073;53.230;10.444;2022-08-19T12:03:35;21.20;99.90
12025;DHT22;6073;53.230;10.444;2022-08-19T12:06:08;21.20;99.90
12025;DHT22;6073;53.230;10.444;2022-08-19T12:08:35;21.20;99.90
12025;DHT22;6073;53.230;10.444;2022-08-19T12:11:01;21.00;99.90
12025;DHT22;6073;53.230;10.444;2022-08-19T12:13:28;20.90;99.90
12025;DHT22;6073;53.230;10.444;2022-08-19T12:15:54;21.00;99.90
12025;DHT22;6073;53.230;10.444;2022-08-19T12:18:19;21.10;99.90
12025;DHT22;6073;53.230;10.444;2022-08-19T12:20:45;21.00;99.90
12025;DHT22;6073;53.230;10.444;2022-08-19T12:23:11;20.90;99.90
12025;DHT22;6073;53.230;10.444;2022-08-19T12:25:43;21.00;99.90
12025;DHT22;6073;53.230;10.444;2022-08-19T12:28:13;21.00;99.90
12025;DHT22;6073;53.230;10.444;2022-08-19T12:30:39;21.00;99.90
12025;DHT22;6073;53.230;10.444;2022-08-19T12:33:04;21.10;99.90
12025;DHT22;6073;53.230;10.444;2022-08-19T12:35:30;21.00;99.90
12025;DHT22;6073;53.230;10.444;2022-08-19T12:37:56;21.00;99.90
12025;DHT22;6073;53.230;10.444;2022-08-19T12:40:21;21.00;99.90
12025;DHT22;6073;53.230;10.444;2022-08-19T12:42:47;21.10;99.90
12025;DHT22;6073;53.230;10.444;2022-08-19T12:45:15;21.20;99.90
12025;DHT22;6073;53.230;10.444;2022-08-19T12:47:41;21.20;99.90
12025;DHT22;6073;53.230;10.444;2022-08-19T12:50:06;21.20;99.90
12025;DHT22;6073;53.230;10.444;2022-08-19T12:52:37;21.10;99.90
12025;DHT22;6073;53.230;10.444;2022-08-19T12:55:05;21.00;99.90
12025;DHT22;6073;53.230;10.444;2022-08-19T12:57:31;21.00;99.90
12025;DHT22;6073;53.230;10.444;2022-08-19T13:00:07;20.90;99.90
12025;DHT22;6073;53.230;10.444;2022-08-19T13:02:36;20.80;99.90
12025;DHT22;6073;53.230;10.444;2022-08-19T13:05:03;20.80;99.90
12025;DHT22;6073;53.230;10.444;2022-08-19T13:07:31;20.70;99.90
12025;DHT22;6073;53.230;10.444;2022-08-19T13:09:56;20.80;99.90
12025;DHT22;6073;53.230;10.444;2022-08-19T13:12:22;21.00;99.90
12025;DHT22;6073;53.230;10.444;2022-08-19T13:14:49;21.30;99.90
12025;DHT22;6073;53.230;10.444;2022-08-19T13:17:16;21.40;99.90
12025;DHT22;6073;53.230;10.444;2022-08-19T13:19:42;21.50;99.90
12025;DHT22;6073;53.230;10.444;2022-08-19T13:22:07;21.60;99.90
12025;DHT22;6073;53.230;10.444;2022-08-19T13:24:33;21.80;99.90
12025;DHT22;6073;53.230;10.444;2022-08-19T13:27:00;21.80;99.90
12025;DHT22;6073;53.230;10.444;2022-08-19T13:29:25;21.80;99.90
12025;DHT22;6073;53.230;10.444;2022-08-19T13:32:09;21.80;99.90
12025;DHT22;6073;53.230;10.444;2022-08-19T13:34:53;21.60;99.90
12025;DHT22;6073;53.230;10.444;2022-08-19T13:37:19;21.60;99.90
12025;DHT22;6073;53.230;10.444;2022-08-19T13:40:05;21.60;99.90
12025;DHT22;6073;53.230;10.444;2022-08-19T13:42:31;21.60;99.90
12025;DHT22;6073;53.230;10.444;2022-08-19T13:44:57;21.70;99.90
12025;DHT22;6073;53.230;10.444;2022-08-19T13:47:23;21.70;99.90
12025;DHT22;6073;53.230;10.444;2022-08-19T13:49:49;21.70;99.90
12025;DHT22;6073;53.230;10.444;2022-08-19T13:52:15;21.70;99.90
12025;DHT22;6073;53.230;10.444;2022-08-19T13:54:41;21.70;99.90
12025;DHT22;6073;53.230;10.444;2022-08-19T13:57:06;21.80;99.90
12025;DHT22;6073;53.230;10.444;2022-08-19T13:59:32;21.80;99.90
12025;DHT22;6073;53.230;10.444;2022-08-19T14:01:59;22.00;99.90
12025;DHT22;6073;53.230;10.444;2022-08-19T14:04:25;22.20;99.90
12025;DHT22;6073;53.230;10.444;2022-08-19T14:06:50;22.40;99.90
12025;DHT22;6073;53.230;10.444;2022-08-19T14:09:16;22.60;99.90
12025;DHT22;6073;53.230;10.444;2022-08-19T14:11:41;22.80;99.90
12025;DHT22;6073;53.230;10.444;2022-08-19T14:14:07;23.00;99.90
12025;DHT22;6073;53.230;10.444;2022-08-19T14:16:32;23.40;99.90
12025;DHT22;6073;53.230;10.444;2022-08-19T14:18:58;23.60;99.90
12025;DHT22;6073;53.230;10.444;2022-08-19T14:21:24;23.80;99.90
12025;DHT22;6073;53.230;10.444;2022-08-19T14:23:50;23.90;99.90
12025;DHT22;6073;53.230;10.444;2022-08-19T14:26:18;23.90;99.90
12025;DHT22;6073;53.230;10.444;2022-08-19T14:28:44;24.00;99.90
12025;DHT22;6073;53.230;10.444;2022-08-19T14:31:16;24.10;99.90
12025;DHT22;6073;53.230;10.444;2022-08-19T14:33:45;24.00;99.90
12025;DHT22;6073;53.230;10.444;2022-08-19T14:36:11;24.10;99.90
12025;DHT22;6073;53.230;10.444;2022-08-19T14:38:36;23.60;99.90
12025;DHT22;6073;53.230;10.444;2022-08-19T14:41:16;23.40;99.90
12025;DHT22;6073;53.230;10.444;2022-08-19T14:43:50;23.20;99.90
12025;DHT22;6073;53.230;10.444;2022-08-19T14:46:22;23.20;99.90
12025;DHT22;6073;53.230;10.444;2022-08-19T14:48:57;23.50;99.90
12025;DHT22;6073;53.230;10.444;2022-08-19T14:51:57;23.70;99.90
12025;DHT22;6073;53.230;10.444;2022-08-19T14:54:25;24.00;99.90
12025;DHT22;6073;53.230;10.444;2022-08-19T14:57:05;24.10;99.90
12025;DHT22;6073;53.230;10.444;2022-08-19T14:59:39;24.30;99.90
12025;DHT22;6073;53.230;10.444;2022-08-19T15:02:19;24.10;99.90
12025;DHT22;6073;53.230;10.444;2022-08-19T15:04:48;23.90;99.90
12025;DHT22;6073;53.230;10.444;2022-08-19T15:07:27;23.70;99.90
12025;DHT22;6073;53.230;10.444;2022-08-19T15:10:14;23.70;99.90
12025;DHT22;6073;53.230;10.444;2022-08-19T15:12:53;23.60;99.90
12025;DHT22;6073;53.230;10.444;2022-08-19T15:15:29;23.50;99.90
12025;DHT22;6073;53.230;10.444;2022-08-19T15:17:55;23.50;99.90
12025;DHT22;6073;53.230;10.444;2022-08-19T15:20:22;23.50;99.90
12025;DHT22;6073;53.230;10.444;2022-08-19T15:22:48;23.60;99.90
12025;DHT22;6073;53.230;10.444;2022-08-19T15:25:15;23.70;99.90
12025;DHT22;6073;53.230;10.444;2022-08-19T15:27:41;23.70;99.90
12025;DHT22;6073;53.230;10.444;2022-08-19T15:30:07;23.70;99.90
12025;DHT22;6073;53.230;10.444;2022-08-19T15:32:33;23.60;99.90
12025;DHT22;6073;53.230;10.444;2022-08-19T15:35:00;23.50;99.90
12025;DHT22;6073;53.230;10.444;2022-08-19T15:37:28;23.60;99.90
12025;DHT22;6073;53.230;10.444;2022-08-19T15:39:53;23.40;99.90
12025;DHT22;6073;53.230;10.444;2022-08-19T15:42:19;23.20;99.90
12025;DHT22;6073;53.230;10.444;2022-08-19T15:44:46;23.10;99.90
12025;DHT22;6073;53.230;10.444;2022-08-19T15:47:12;23.10;99.90
12025;DHT22;6073;53.230;10.444;2022-08-19T15:49:37;23.10;99.90
12025;DHT22;6073;53.230;10.444;2022-08-19T15:52:03;23.10;99.90
12025;DHT22;6073;53.230;10.444;2022-08-19T15:54:32;23.10;99.90
12025;DHT22;6073;53.230;10.444;2022-08-19T15:56:58;23.10;99.90